createdAt,value
2023-03-17T00:03:18.328Z,25.45
2023-03-17T00:08:25.782Z,25.53
2023-03-17T00:13:33.154Z,25.68
2023-03-17T00:18:40.674Z,25.72
2023-03-17T00:23:57.620Z,25.76
2023-03-17T00:29:05.003Z,25.87
2023-03-17T00:34:12.437Z,25.93
2023-03-17T00:39:23.965Z,25.99
2023-03-17T00:44:40.328Z,26.04
2023-03-17T00:49:47.934Z,26.12
2023-03-17T00:54:55.476Z,26.23
2023-03-17T01:00:03.055Z,26.32
2023-03-17T01:05:13.423Z,26.38
2023-03-17T01:10:20.816Z,26.46
2023-03-17T01:15:28.128Z,26.52
2023-03-17T01:20:35.440Z,26.61
2023-03-17T01:25:42.683Z,26.69
2023-03-17T01:30:49.983Z,26.74
2023-03-17T01:35:57.265Z,26.80
2023-03-17T01:41:04.592Z,26.87
2023-03-17T01:46:11.871Z,26.89
2023-03-17T01:51:19.002Z,26.94
2023-03-17T01:56:26.329Z,26.97
2023-03-17T02:01:33.484Z,26.99
2023-03-17T02:06:54.952Z,27.10
2023-03-17T02:11:47.889Z,27.12
2023-03-17T02:16:55.242Z,27.15
2023-03-17T02:22:02.425Z,27.21
2023-03-17T02:27:09.607Z,27.26
2023-03-17T02:32:16.770Z,27.25
2023-03-17T02:37:24.007Z,27.29
2023-03-17T02:42:31.267Z,27.33
2023-03-17T02:47:38.418Z,27.38
2023-03-17T02:52:45.607Z,27.37
2023-03-17T02:57:52.831Z,27.41
2023-03-17T03:02:59.984Z,27.46
2023-03-17T03:08:07.165Z,27.42
2023-03-17T03:13:14.381Z,27.42
2023-03-17T03:18:21.554Z,27.19
2023-03-17T03:23:28.783Z,27.13
2023-03-17T03:28:35.930Z,27.03
2023-03-17T03:33:43.207Z,27.03
2023-03-17T03:38:50.387Z,27.03
2023-03-17T03:43:57.610Z,27.13
2023-03-17T03:49:04.769Z,27.15
2023-03-17T03:54:11.937Z,27.19
2023-03-17T03:59:19.179Z,27.22
2023-03-17T04:04:26.437Z,27.24
2023-03-17T04:09:33.582Z,27.19
2023-03-17T04:14:40.808Z,27.16
2023-03-17T04:19:48.011Z,27.19
2023-03-17T04:24:55.267Z,27.19
2023-03-17T04:30:02.748Z,27.25
2023-03-17T04:35:10.109Z,27.28
2023-03-17T04:40:17.319Z,27.26
2023-03-17T04:45:24.754Z,27.19
2023-03-17T04:50:32.383Z,27.09
2023-03-17T04:55:39.335Z,27.30
2023-03-17T05:00:46.744Z,27.25
2023-03-17T05:05:53.862Z,27.21
2023-03-17T05:11:01.365Z,27.14
2023-03-17T05:16:08.938Z,27.28
2023-03-17T05:21:16.181Z,27.30
2023-03-17T05:26:23.586Z,27.27
2023-03-17T05:31:31.150Z,27.20
2023-03-17T05:36:38.564Z,27.23
2023-03-17T05:41:45.943Z,27.19
2023-03-17T05:46:53.335Z,27.31
2023-03-17T05:52:03.472Z,27.28
2023-03-17T05:57:09.892Z,27.25
2023-03-17T06:02:17.592Z,27.25
2023-03-17T06:07:24.860Z,27.29
2023-03-17T06:12:32.497Z,27.24
2023-03-17T06:17:39.935Z,27.21
2023-03-17T06:23:02.794Z,27.19
2023-03-17T06:27:55.391Z,27.20
2023-03-17T06:33:17.716Z,27.14
2023-03-17T06:38:42.605Z,27.08
2023-03-17T06:43:48.732Z,27.09
2023-03-17T06:48:56.310Z,27.09
2023-03-17T06:54:03.791Z,27.06
2023-03-17T06:59:11.201Z,27.07
2023-03-17T07:04:18.690Z,27.02
2023-03-17T07:09:26.113Z,27.05
2023-03-17T07:14:33.586Z,27.13
2023-03-17T07:19:41.160Z,27.15
2023-03-17T07:24:51.370Z,27.18
2023-03-17T07:29:58.720Z,27.13
2023-03-17T07:35:06.233Z,27.14
2023-03-17T07:40:13.574Z,27.12
2023-03-17T07:45:20.885Z,27.10
2023-03-17T07:50:28.302Z,27.09
2023-03-17T07:55:35.570Z,27.11
2023-03-17T08:00:42.923Z,27.15
2023-03-17T08:05:50.578Z,27.11
2023-03-17T08:10:58.850Z,27.16
2023-03-17T08:16:11.139Z,27.14
2023-03-17T08:21:18.446Z,27.24
2023-03-17T08:26:25.828Z,27.34
2023-03-17T08:31:33.354Z,27.32
2023-03-17T08:36:40.521Z,27.29
2023-03-17T08:41:47.963Z,27.31
2023-03-17T08:46:55.425Z,27.29
2023-03-17T08:52:02.860Z,28.70
2023-03-17T08:57:10.235Z,28.35
2023-03-17T09:02:17.660Z,28.28
2023-03-17T09:07:24.967Z,28.23
2023-03-17T09:12:34.106Z,28.15
2023-03-17T09:17:39.863Z,28.06
2023-03-17T09:22:47.234Z,28.08
2023-03-17T09:27:54.469Z,28.09
2023-03-17T09:33:01.856Z,28.05
2023-03-17T09:38:09.183Z,28.06
2023-03-17T09:43:16.553Z,28.04
2023-03-17T09:48:23.914Z,28.01
2023-03-17T09:53:31.301Z,28.00
2023-03-17T09:58:38.707Z,28.03
2023-03-17T10:03:46.101Z,27.97
2023-03-17T10:08:53.515Z,27.97
2023-03-17T10:14:00.913Z,28.03
2023-03-17T10:19:08.319Z,28.01
2023-03-17T10:24:15.676Z,28.01
2023-03-17T10:29:23.049Z,27.97
2023-03-17T10:34:30.439Z,27.98
2023-03-17T10:39:37.868Z,27.97
2023-03-17T10:44:45.157Z,28.01
2023-03-17T10:49:52.809Z,28.00
2023-03-17T10:55:00.203Z,28.04
2023-03-17T11:00:07.568Z,28.06
2023-03-17T11:05:14.985Z,28.07
2023-03-17T11:10:22.400Z,28.12
2023-03-17T11:15:29.816Z,28.08
2023-03-17T11:20:37.424Z,28.15
2023-03-17T11:25:44.744Z,28.18
2023-03-17T11:30:52.127Z,28.16
2023-03-17T11:35:59.631Z,28.18
2023-03-17T11:41:07.060Z,28.22
2023-03-17T11:46:16.661Z,28.20
2023-03-17T11:51:22.778Z,28.18
2023-03-17T11:56:31.618Z,28.18
2023-03-17T12:01:42.721Z,28.24
2023-03-17T12:06:48.576Z,28.22
2023-03-17T12:12:01.657Z,28.18
2023-03-17T12:17:06.977Z,28.22
2023-03-17T12:22:14.328Z,28.25
2023-03-17T12:27:21.889Z,28.26
2023-03-17T12:32:29.396Z,28.34
2023-03-17T12:37:36.676Z,28.34
2023-03-17T12:42:47.051Z,28.33
2023-03-17T12:47:52.037Z,28.36
2023-03-17T12:52:59.446Z,28.37
2023-03-17T12:58:06.877Z,28.30
2023-03-17T13:03:14.604Z,28.30
2023-03-17T13:08:21.945Z,28.43
2023-03-17T13:13:29.611Z,28.42
2023-03-17T13:18:37.017Z,28.52
2023-03-17T13:23:44.363Z,28.51
2023-03-17T13:28:51.746Z,28.61
2023-03-17T13:33:59.170Z,28.69
2023-03-17T13:39:19.312Z,28.74
2023-03-17T13:44:14.662Z,28.82
2023-03-17T13:49:22.067Z,28.83
2023-03-17T13:54:29.457Z,28.81
2023-03-17T13:59:36.850Z,28.88
2023-03-17T14:04:44.064Z,28.84
2023-03-17T14:09:51.469Z,28.84
2023-03-17T14:14:58.759Z,28.84
2023-03-17T14:20:06.086Z,28.95
2023-03-17T14:25:13.428Z,28.90
2023-03-17T14:30:20.912Z,28.96
2023-03-17T14:35:28.405Z,29.00
2023-03-17T14:40:35.817Z,29.02
2023-03-17T14:45:43.267Z,28.98
2023-03-17T14:50:50.716Z,28.99
2023-03-17T14:56:01.551Z,29.01
2023-03-17T15:01:06.461Z,29.03
2023-03-17T15:06:13.890Z,29.09
2023-03-17T15:11:22.395Z,29.03
2023-03-17T15:16:30.032Z,29.08
2023-03-17T15:21:37.328Z,29.11
2023-03-17T15:26:44.933Z,29.13
2023-03-17T15:31:52.613Z,29.12
2023-03-17T15:36:59.872Z,29.16
2023-03-17T15:42:07.232Z,29.15
2023-03-17T15:47:14.594Z,29.17
2023-03-17T15:52:21.925Z,29.17
2023-03-17T15:57:29.183Z,29.16
2023-03-17T16:02:36.579Z,29.17
2023-03-17T16:07:43.892Z,29.15
2023-03-17T16:12:51.290Z,29.15
2023-03-17T16:17:58.679Z,29.14
2023-03-17T16:23:06.013Z,29.13
2023-03-17T16:28:13.290Z,29.11
2023-03-17T16:33:20.755Z,29.12
2023-03-17T16:38:27.937Z,29.09
2023-03-17T16:43:35.249Z,29.03
2023-03-17T16:48:42.560Z,29.11
2023-03-17T16:53:49.837Z,29.09
2023-03-17T17:04:04.888Z,28.99
2023-03-17T17:09:12.451Z,29.15
2023-03-17T17:14:20.174Z,29.11
2023-03-17T17:19:28.326Z,29.16
2023-03-17T17:24:35.525Z,29.18
2023-03-17T17:29:42.833Z,29.20
2023-03-17T17:34:50.215Z,29.20
2023-03-17T17:40:01.601Z,29.20
2023-03-17T17:45:12.440Z,29.16
2023-03-17T17:50:22.309Z,29.21
2023-03-17T17:55:29.910Z,29.19
2023-03-17T18:00:37.733Z,29.23
2023-03-17T18:05:45.312Z,29.26
2023-03-17T18:10:52.778Z,29.36
2023-03-17T18:16:00.452Z,30.50
2023-03-17T18:21:08.811Z,30.82
2023-03-17T18:26:16.592Z,30.60
2023-03-17T18:31:23.984Z,30.48
2023-03-17T18:36:31.350Z,30.29
2023-03-17T18:41:39.130Z,30.25
2023-03-17T18:46:46.857Z,30.22
2023-03-17T18:51:54.600Z,30.00
2023-03-17T18:57:02.297Z,29.78
2023-03-17T19:02:09.855Z,29.83
2023-03-17T19:07:17.261Z,29.40
2023-03-17T19:12:24.848Z,29.23
2023-03-17T19:17:32.636Z,28.89
2023-03-17T19:22:40.338Z,28.83
2023-03-17T19:27:48.155Z,28.71
2023-03-17T19:32:56.741Z,28.80
2023-03-17T19:38:03.673Z,28.93
2023-03-17T19:43:11.131Z,29.18
2023-03-17T19:48:18.513Z,29.23
2023-03-17T19:53:26.988Z,28.99
2023-03-17T19:58:34.319Z,29.00
2023-03-17T20:03:42.110Z,29.02
2023-03-17T20:08:49.824Z,28.80
2023-03-17T20:13:57.529Z,28.76
2023-03-17T20:19:04.837Z,28.93
2023-03-17T20:24:12.186Z,28.79
2023-03-17T20:29:19.605Z,28.68
2023-03-17T20:34:27.162Z,28.83
2023-03-17T20:39:34.894Z,29.10
2023-03-17T20:44:42.800Z,28.87
2023-03-17T20:49:50.483Z,28.79
2023-03-17T20:54:58.166Z,28.87
2023-03-17T21:00:05.596Z,28.80
2023-03-17T21:05:13.171Z,28.53
2023-03-17T21:10:20.789Z,28.46
2023-03-17T21:15:28.229Z,28.43
2023-03-17T21:20:35.529Z,28.29
2023-03-17T21:25:42.842Z,28.10
2023-03-17T21:30:50.148Z,27.99
2023-03-17T21:35:57.644Z,27.73
2023-03-17T21:41:05.030Z,27.82
2023-03-17T21:46:12.230Z,27.97
2023-03-17T21:51:19.544Z,28.03
2023-03-17T21:56:26.890Z,27.86
2023-03-17T22:01:34.181Z,27.80
2023-03-17T22:06:41.240Z,27.73
2023-03-17T22:11:48.536Z,27.58
2023-03-17T22:16:55.764Z,27.47
2023-03-17T22:22:02.989Z,27.46
2023-03-17T22:27:10.230Z,27.31
2023-03-17T22:32:17.485Z,27.26
2023-03-17T22:37:24.774Z,27.15
2023-03-17T22:42:32.035Z,27.06
2023-03-17T22:47:39.255Z,26.88
2023-03-17T22:52:46.598Z,26.79
2023-03-17T22:57:53.865Z,26.83
2023-03-17T23:03:01.140Z,26.84
2023-03-17T23:08:08.379Z,26.76
2023-03-17T23:13:15.663Z,26.62
2023-03-17T23:18:22.854Z,26.58
2023-03-17T23:23:30.145Z,26.51
2023-03-17T23:28:37.553Z,26.27
2023-03-17T23:33:44.705Z,26.02
2023-03-17T23:38:51.893Z,26.13
2023-03-17T23:43:59.113Z,25.87
2023-03-17T23:49:06.369Z,25.89
2023-03-17T23:54:13.627Z,25.81
2023-03-17T23:59:20.938Z,25.92
